createdAt,value
2022-08-29T00:00:18.057Z,8.80
2022-08-29T00:03:02.036Z,9.10
2022-08-29T00:05:39.863Z,9.30
2022-08-29T00:08:08.488Z,8.40
2022-08-29T00:10:39.414Z,9.00
2022-08-29T00:13:09.062Z,13.20
2022-08-29T00:15:44.463Z,9.00
2022-08-29T00:18:16.538Z,8.10
2022-08-29T00:20:45.106Z,8.20
2022-08-29T00:23:13.439Z,7.80
2022-08-29T00:25:41.489Z,8.60
2022-08-29T00:28:09.505Z,8.50
2022-08-29T00:30:40.714Z,8.10
2022-08-29T00:33:09.346Z,8.10
2022-08-29T00:35:39.237Z,8.70
2022-08-29T00:38:11.891Z,9.90
2022-08-29T00:40:53.846Z,9.50
2022-08-29T00:43:25.140Z,9.40
2022-08-29T00:46:40.390Z,9.80
2022-08-29T00:49:29.288Z,10.30
2022-08-29T00:51:59.745Z,9.10
2022-08-29T00:54:28.238Z,9.80
2022-08-29T00:56:56.845Z,10.00
2022-08-29T00:59:29.009Z,10.80
2022-08-29T01:01:57.150Z,11.10
2022-08-29T01:04:25.190Z,11.10
2022-08-29T01:06:54.441Z,12.80
2022-08-29T01:09:24.338Z,11.10
2022-08-29T01:12:11.769Z,11.50
2022-08-29T01:15:02.736Z,11.40
2022-08-29T01:17:35.388Z,11.20
2022-08-29T01:20:19.595Z,12.50
2022-08-29T01:23:16.285Z,12.70
2022-08-29T01:25:51.148Z,13.00
2022-08-29T01:28:21.570Z,12.10
2022-08-29T01:31:11.698Z,12.50
2022-08-29T01:33:57.105Z,15.30
2022-08-29T01:36:32.500Z,13.30
2022-08-29T01:39:01.039Z,13.90
2022-08-29T01:41:29.309Z,13.00
2022-08-29T01:43:57.496Z,12.90
2022-08-29T01:46:32.358Z,13.60
2022-08-29T01:49:06.037Z,13.70
2022-08-29T01:51:35.415Z,16.90
2022-08-29T01:54:06.286Z,15.10
2022-08-29T01:56:38.793Z,15.30
2022-08-29T01:59:11.054Z,12.50
2022-08-29T02:01:42.417Z,13.20
2022-08-29T02:04:10.469Z,13.20
2022-08-29T02:06:38.498Z,12.90
2022-08-29T02:09:07.921Z,13.40
2022-08-29T02:11:40.108Z,13.60
2022-08-29T02:14:16.170Z,13.20
2022-08-29T02:16:48.636Z,15.20
2022-08-29T02:19:16.935Z,15.70
2022-08-29T02:21:45.044Z,13.60
2022-08-29T02:24:25.358Z,13.60
2022-08-29T02:26:55.485Z,15.30
2022-08-29T02:29:25.063Z,17.00
2022-08-29T02:31:53.247Z,16.40
2022-08-29T02:34:21.464Z,17.00
2022-08-29T02:36:49.462Z,17.10
2022-08-29T02:39:18.348Z,18.20
2022-08-29T02:41:46.330Z,19.30
2022-08-29T02:44:14.254Z,19.10
2022-08-29T02:46:42.233Z,20.40
2022-08-29T02:49:10.185Z,20.90
2022-08-29T02:51:38.610Z,23.10
2022-08-29T02:54:06.898Z,24.20
2022-08-29T02:56:35.192Z,24.60
2022-08-29T02:59:03.308Z,26.30
2022-08-29T03:01:31.464Z,25.60
2022-08-29T03:03:59.571Z,25.10
2022-08-29T03:06:27.482Z,28.10
2022-08-29T03:08:55.718Z,25.80
2022-08-29T03:11:24.530Z,27.80
2022-08-29T03:13:52.374Z,29.20
2022-08-29T03:16:27.260Z,30.00
2022-08-29T03:18:55.718Z,29.60
2022-08-29T03:21:26.842Z,29.40
2022-08-29T03:23:56.611Z,28.50
2022-08-29T03:26:25.512Z,30.60
2022-08-29T03:28:53.538Z,30.40
2022-08-29T03:31:22.329Z,31.50
2022-08-29T03:33:50.255Z,30.60
2022-08-29T03:36:19.274Z,30.30
2022-08-29T03:38:50.391Z,29.40
2022-08-29T03:41:24.063Z,30.50
2022-08-29T03:43:52.109Z,29.00
2022-08-29T03:46:20.159Z,29.10
2022-08-29T03:48:51.756Z,29.00
2022-08-29T03:51:22.077Z,30.10
2022-08-29T03:53:50.019Z,31.10
2022-08-29T03:56:18.878Z,30.10
2022-08-29T03:58:53.362Z,29.00
2022-08-29T04:01:24.930Z,30.00
2022-08-29T04:03:54.955Z,30.80
2022-08-29T04:06:25.213Z,29.30
2022-08-29T04:08:53.357Z,30.30
2022-08-29T04:11:25.045Z,29.40
2022-08-29T04:13:53.898Z,29.30
2022-08-29T04:16:30.945Z,28.90
2022-08-29T04:19:00.079Z,30.20
2022-08-29T04:21:28.367Z,30.30
2022-08-29T04:23:56.585Z,30.20
2022-08-29T04:26:36.746Z,31.50
2022-08-29T04:29:08.565Z,30.90
2022-08-29T04:31:38.013Z,31.50
2022-08-29T04:34:07.615Z,29.70
2022-08-29T04:36:37.714Z,26.50
2022-08-29T04:39:06.637Z,26.20
2022-08-29T04:41:35.679Z,25.60
2022-08-29T04:44:05.390Z,25.10
2022-08-29T04:46:33.572Z,23.90
2022-08-29T04:49:04.456Z,24.40
2022-08-29T04:51:35.712Z,23.50
2022-08-29T04:54:05.090Z,21.60
2022-08-29T04:56:34.653Z,22.90
2022-08-29T04:59:03.510Z,23.30
2022-08-29T05:01:31.993Z,21.90
2022-08-29T05:04:00.043Z,21.70
2022-08-29T05:06:28.527Z,21.90
2022-08-29T05:08:58.967Z,21.80
2022-08-29T05:11:32.598Z,21.90
2022-08-29T05:14:00.859Z,21.10
2022-08-29T05:16:30.972Z,22.50
2022-08-29T05:18:59.855Z,20.40
2022-08-29T05:21:36.723Z,21.50
2022-08-29T05:24:07.421Z,19.40
2022-08-29T05:26:38.179Z,15.00
2022-08-29T05:29:08.560Z,14.10
2022-08-29T05:31:39.030Z,11.10
2022-08-29T05:34:31.863Z,10.20
2022-08-29T05:36:56.822Z,7.70
2022-08-29T05:39:24.689Z,7.20
2022-08-29T05:41:55.737Z,5.60
2022-08-29T05:44:24.646Z,5.60
2022-08-29T05:46:52.604Z,4.20
2022-08-29T05:49:21.394Z,5.10
2022-08-29T05:51:53.492Z,4.20
2022-08-29T05:54:22.790Z,4.20
2022-08-29T05:56:51.625Z,4.80
2022-08-29T05:59:19.955Z,5.00
2022-08-29T06:01:47.805Z,4.90
2022-08-29T06:04:15.794Z,5.50
2022-08-29T06:06:43.651Z,4.80
2022-08-29T06:09:12.667Z,4.50
2022-08-29T06:11:40.562Z,4.90
2022-08-29T06:14:08.475Z,4.70
2022-08-29T06:16:36.384Z,5.00
2022-08-29T06:19:04.285Z,4.80
2022-08-29T06:21:32.179Z,4.90
2022-08-29T06:24:00.411Z,5.10
2022-08-29T06:26:28.272Z,4.90
2022-08-29T06:28:56.191Z,4.30
2022-08-29T06:31:29.438Z,5.10
2022-08-29T06:34:00.298Z,5.70
2022-08-29T06:36:30.211Z,5.30
2022-08-29T06:39:00.300Z,5.40
2022-08-29T06:41:29.201Z,4.50
2022-08-29T06:43:57.445Z,5.50
2022-08-29T06:46:34.143Z,5.50
2022-08-29T06:49:04.450Z,8.00
2022-08-29T06:51:36.001Z,5.00
2022-08-29T06:54:07.208Z,4.40
2022-08-29T06:56:36.608Z,4.60
2022-08-29T06:59:09.398Z,4.30
2022-08-29T07:01:37.698Z,4.50
2022-08-29T07:04:05.605Z,7.10
2022-08-29T07:06:43.000Z,4.90
2022-08-29T07:09:11.554Z,4.90
2022-08-29T07:11:41.433Z,5.50
2022-08-29T07:14:11.274Z,6.00
2022-08-29T07:16:41.256Z,5.80
2022-08-29T07:19:11.044Z,6.80
2022-08-29T07:21:40.015Z,6.40
2022-08-29T07:24:08.418Z,6.20
2022-08-29T07:26:42.193Z,7.60
2022-08-29T07:29:14.773Z,6.80
2022-08-29T07:31:42.859Z,7.70
2022-08-29T07:34:11.399Z,6.90
2022-08-29T07:36:39.561Z,7.90
2022-08-29T07:39:11.696Z,8.30
2022-08-29T07:41:40.734Z,8.10
2022-08-29T07:44:09.470Z,8.80
2022-08-29T07:46:38.224Z,12.00
2022-08-29T07:49:07.278Z,9.50
2022-08-29T07:51:35.907Z,9.80
2022-08-29T07:54:04.750Z,9.60
2022-08-29T07:56:41.412Z,11.00
2022-08-29T07:59:09.867Z,14.00
2022-08-29T08:01:38.754Z,10.70
2022-08-29T08:04:11.325Z,9.70
2022-08-29T08:06:42.053Z,10.10
2022-08-29T08:09:11.424Z,10.60
2022-08-29T08:11:39.954Z,12.10
2022-08-29T08:14:08.835Z,9.50
2022-08-29T08:16:37.240Z,10.70
2022-08-29T08:19:06.118Z,11.70
2022-08-29T08:21:34.569Z,11.40
2022-08-29T08:24:03.797Z,8.90
2022-08-29T08:26:31.737Z,9.40
2022-08-29T08:28:59.952Z,9.20
2022-08-29T08:31:28.187Z,9.40
2022-08-29T08:33:56.594Z,12.10
2022-08-29T08:36:28.789Z,9.50
2022-08-29T08:38:59.556Z,15.80
2022-08-29T08:41:33.516Z,8.00
2022-08-29T08:44:07.380Z,9.50
2022-08-29T08:46:42.206Z,7.10
2022-08-29T08:49:19.026Z,10.00
2022-08-29T08:51:53.755Z,9.80
2022-08-29T08:54:27.717Z,8.70
2022-08-29T08:57:06.651Z,7.80
2022-08-29T08:59:43.681Z,9.00
2022-08-29T09:02:36.728Z,9.40
2022-08-29T09:05:14.840Z,7.90
2022-08-29T09:07:48.556Z,8.70
2022-08-29T09:10:38.938Z,9.20
2022-08-29T09:13:28.496Z,7.70
2022-08-29T09:16:01.155Z,8.00
2022-08-29T09:18:40.535Z,6.60
2022-08-29T09:21:40.196Z,11.10
2022-08-29T09:24:16.515Z,10.50
2022-08-29T09:26:44.515Z,8.90
2022-08-29T09:29:14.204Z,8.50
2022-08-29T09:31:42.315Z,7.20
2022-08-29T09:34:15.662Z,8.50
2022-08-29T09:36:52.539Z,6.70
2022-08-29T09:39:26.617Z,7.80
2022-08-29T09:42:14.635Z,10.50
2022-08-29T09:44:53.671Z,6.60
2022-08-29T09:47:24.921Z,8.20
2022-08-29T09:50:07.465Z,8.00
2022-08-29T09:52:41.742Z,9.00
2022-08-29T09:55:28.362Z,9.60
2022-08-29T09:58:05.270Z,9.10
2022-08-29T10:00:38.001Z,7.70
2022-08-29T10:03:11.012Z,6.90
2022-08-29T10:05:46.379Z,9.00
2022-08-29T10:08:54.855Z,8.80
2022-08-29T10:11:48.732Z,9.60
2022-08-29T10:15:04.834Z,7.30
2022-08-29T10:17:58.417Z,6.80
2022-08-29T10:20:44.614Z,8.00
2022-08-29T10:23:35.482Z,6.80
2022-08-29T10:26:10.335Z,5.70
2022-08-29T10:28:47.005Z,11.20
2022-08-29T10:31:26.502Z,6.90
2022-08-29T10:34:29.460Z,5.50
2022-08-29T10:37:03.316Z,4.50
2022-08-29T10:39:50.877Z,5.10
2022-08-29T10:42:25.734Z,3.90
2022-08-29T10:45:14.445Z,5.20
2022-08-29T10:47:52.447Z,5.80
2022-08-29T10:50:48.298Z,6.20
2022-08-29T10:53:27.917Z,5.40
2022-08-29T10:56:04.498Z,6.00
2022-08-29T10:58:47.187Z,4.90
2022-08-29T11:01:22.474Z,10.10
2022-08-29T11:04:06.357Z,7.60
2022-08-29T11:06:47.446Z,4.20
2022-08-29T11:09:24.596Z,4.50
2022-08-29T11:12:17.415Z,3.50
2022-08-29T11:14:59.995Z,3.70
2022-08-29T11:17:34.863Z,3.30
2022-08-29T11:20:11.639Z,5.50
2022-08-29T11:22:46.832Z,3.90
2022-08-29T11:25:20.296Z,4.40
2022-08-29T11:28:10.749Z,4.50
2022-08-29T11:30:59.836Z,5.50
2022-08-29T11:33:57.240Z,5.70
2022-08-29T11:36:28.301Z,7.10
2022-08-29T11:39:23.812Z,4.90
2022-08-29T11:41:58.543Z,4.00
2022-08-29T11:44:33.837Z,4.80
2022-08-29T11:47:30.569Z,3.80
2022-08-29T11:50:27.112Z,3.60
2022-08-29T11:53:08.278Z,2.70
2022-08-29T11:55:37.876Z,2.70
2022-08-29T11:58:29.116Z,4.30
2022-08-29T12:00:58.566Z,4.40
2022-08-29T12:03:47.101Z,3.80
2022-08-29T12:06:37.219Z,3.30
2022-08-29T12:09:13.316Z,2.80
2022-08-29T12:12:02.656Z,4.10
2022-08-29T12:14:37.710Z,3.50
2022-08-29T12:17:16.721Z,4.30
2022-08-29T12:19:49.928Z,4.20
2022-08-29T12:22:47.110Z,2.80
2022-08-29T12:26:09.875Z,4.50
2022-08-29T12:29:19.558Z,3.10
2022-08-29T12:32:18.107Z,3.70
2022-08-29T12:34:47.389Z,4.40
2022-08-29T12:37:56.538Z,3.50
2022-08-29T12:41:06.156Z,4.30
2022-08-29T12:43:44.329Z,4.70
2022-08-29T12:46:24.235Z,6.20
2022-08-29T12:49:23.691Z,4.40
2022-08-29T12:51:58.785Z,4.30
2022-08-29T12:54:33.441Z,4.30
2022-08-29T12:57:02.753Z,4.10
2022-08-29T12:59:30.735Z,3.10
2022-08-29T13:01:59.553Z,3.30
2022-08-29T13:04:35.378Z,3.10
2022-08-29T13:07:06.930Z,4.90
2022-08-29T13:09:43.204Z,3.10
2022-08-29T13:12:11.046Z,3.00
2022-08-29T13:14:57.342Z,4.10
2022-08-29T13:17:34.886Z,4.90
2022-08-29T13:20:40.432Z,3.20
2022-08-29T13:23:28.056Z,5.40
2022-08-29T13:25:59.150Z,5.50
2022-08-29T13:28:41.352Z,3.60
2022-08-29T13:31:12.113Z,2.90
2022-08-29T13:34:08.785Z,4.60
2022-08-29T13:37:01.398Z,3.00
2022-08-29T13:39:41.057Z,5.50
2022-08-29T13:42:20.538Z,3.10
2022-08-29T13:45:07.568Z,4.80
2022-08-29T13:47:51.148Z,4.20
2022-08-29T13:50:19.166Z,4.20
2022-08-29T13:52:50.945Z,4.30
2022-08-29T13:55:19.333Z,3.20
2022-08-29T13:57:50.962Z,3.10
2022-08-29T14:00:31.941Z,3.70
2022-08-29T14:03:01.629Z,3.50
2022-08-29T14:05:29.716Z,4.20
2022-08-29T14:07:57.667Z,4.80
2022-08-29T14:10:25.623Z,2.70
2022-08-29T14:12:53.596Z,4.80
2022-08-29T14:15:21.515Z,4.00
2022-08-29T14:17:49.731Z,4.10
2022-08-29T14:20:18.971Z,4.50
2022-08-29T14:22:47.620Z,4.10
2022-08-29T14:25:18.146Z,3.20
2022-08-29T14:27:47.796Z,3.30
2022-08-29T14:30:20.293Z,3.60
2022-08-29T14:32:48.324Z,6.30
2022-08-29T14:35:26.740Z,5.30
2022-08-29T14:38:01.318Z,5.30
2022-08-29T14:40:32.738Z,3.70
2022-08-29T14:43:02.866Z,4.80
2022-08-29T14:45:32.416Z,4.80
2022-08-29T14:48:02.160Z,3.50
2022-08-29T14:50:30.301Z,3.00
2022-08-29T14:52:58.351Z,3.00
2022-08-29T14:55:26.359Z,4.20
2022-08-29T14:57:54.225Z,3.80
2022-08-29T15:00:27.246Z,8.30
2022-08-29T15:02:55.416Z,5.90
2022-08-29T15:05:24.215Z,3.30
2022-08-29T15:07:52.285Z,5.60
2022-08-29T15:10:23.485Z,3.30
2022-08-29T15:12:51.874Z,4.20
2022-08-29T15:15:29.367Z,3.70
2022-08-29T15:18:05.436Z,3.80
2022-08-29T15:20:37.317Z,2.60
2022-08-29T15:23:06.701Z,3.60
2022-08-29T15:25:35.125Z,3.30
2022-08-29T15:28:03.749Z,6.10
2022-08-29T15:30:32.445Z,4.00
2022-08-29T15:33:00.288Z,4.30
2022-08-29T15:35:28.328Z,3.10
2022-08-29T15:37:56.599Z,3.70
2022-08-29T15:40:24.606Z,6.00
2022-08-29T15:42:52.450Z,5.00
2022-08-29T15:45:22.466Z,6.10
2022-08-29T15:47:54.106Z,4.90
2022-08-29T15:50:23.817Z,4.30
2022-08-29T15:52:51.945Z,5.30
2022-08-29T15:55:20.340Z,3.10
2022-08-29T15:57:52.315Z,3.50
2022-08-29T16:00:30.168Z,3.40
2022-08-29T16:03:03.058Z,2.60
2022-08-29T16:05:32.756Z,4.40
2022-08-29T16:08:01.294Z,3.60
2022-08-29T16:10:30.507Z,4.00
2022-08-29T16:12:59.005Z,3.20
2022-08-29T16:15:29.043Z,2.90
2022-08-29T16:17:59.726Z,4.70
2022-08-29T16:20:28.888Z,3.90
2022-08-29T16:22:56.958Z,3.60
2022-08-29T16:25:26.204Z,3.90
2022-08-29T16:27:55.487Z,3.10
2022-08-29T16:30:23.752Z,3.60
2022-08-29T16:32:51.811Z,6.00
2022-08-29T16:35:20.238Z,4.10
2022-08-29T16:38:00.376Z,3.60
2022-08-29T16:40:32.453Z,4.90
2022-08-29T16:43:01.984Z,3.40
2022-08-29T16:45:30.797Z,3.60
2022-08-29T16:47:59.993Z,2.50
2022-08-29T16:50:29.515Z,4.50
2022-08-29T16:52:57.804Z,4.80
2022-08-29T16:55:26.224Z,4.20
2022-08-29T16:58:12.924Z,5.10
2022-08-29T17:00:41.404Z,4.10
2022-08-29T17:03:09.298Z,5.20
2022-08-29T17:05:37.775Z,2.90
2022-08-29T17:08:05.671Z,2.90
2022-08-29T17:10:33.620Z,5.70
2022-08-29T17:13:01.637Z,3.00
2022-08-29T17:15:29.534Z,3.00
2022-08-29T17:17:57.425Z,5.50
2022-08-29T17:20:25.412Z,2.50
2022-08-29T17:22:54.662Z,3.70
2022-08-29T17:25:23.300Z,2.50
2022-08-29T17:28:14.069Z,2.80
2022-08-29T17:30:40.643Z,4.60
2022-08-29T17:33:11.007Z,2.60
2022-08-29T17:35:38.917Z,3.40
2022-08-29T17:38:06.888Z,4.40
2022-08-29T17:40:36.855Z,4.40
2022-08-29T17:43:04.965Z,2.60
2022-08-29T17:45:33.188Z,2.60
2022-08-29T17:48:01.555Z,3.10
2022-08-29T17:50:29.519Z,4.10
2022-08-29T17:52:58.195Z,2.40
2022-08-29T17:55:27.574Z,6.60
2022-08-29T17:57:59.170Z,4.10
2022-08-29T18:00:27.437Z,7.40
2022-08-29T18:02:55.447Z,2.80
2022-08-29T18:05:23.876Z,2.70
2022-08-29T18:07:52.037Z,2.60
2022-08-29T18:10:23.448Z,2.90
2022-08-29T18:12:51.371Z,3.60
2022-08-29T18:15:19.325Z,2.60
2022-08-29T18:17:47.349Z,3.00
2022-08-29T18:20:19.544Z,3.10
2022-08-29T18:22:50.356Z,4.40
2022-08-29T18:25:22.740Z,3.50
2022-08-29T18:27:50.992Z,3.70
2022-08-29T18:30:19.319Z,2.30
2022-08-29T18:32:47.302Z,3.50
2022-08-29T18:35:16.121Z,3.90
2022-08-29T18:37:44.125Z,4.50
2022-08-29T18:40:12.069Z,2.80
2022-08-29T18:42:41.433Z,4.70
2022-08-29T18:45:10.295Z,3.00
2022-08-29T18:47:38.306Z,4.20
2022-08-29T18:50:25.473Z,4.70
2022-08-29T18:52:55.607Z,6.80
2022-08-29T18:55:24.052Z,4.70
2022-08-29T18:57:54.086Z,2.70
2022-08-29T19:00:25.166Z,7.20
2022-08-29T19:02:54.795Z,7.30
2022-08-29T19:05:24.778Z,3.80
2022-08-29T19:07:54.891Z,5.00
2022-08-29T19:10:23.745Z,3.80
2022-08-29T19:12:53.553Z,7.00
2022-08-29T19:15:24.649Z,4.20
2022-08-29T19:17:53.729Z,3.60
2022-08-29T19:20:43.487Z,4.80
2022-08-29T19:23:12.250Z,5.40
2022-08-29T19:25:41.229Z,4.30
2022-08-29T19:28:10.775Z,3.30
2022-08-29T19:30:39.425Z,3.90
2022-08-29T19:33:09.570Z,4.70
2022-08-29T19:35:38.974Z,3.50
2022-08-29T19:38:07.837Z,3.30
2022-08-29T19:40:39.341Z,5.30
2022-08-29T19:43:13.714Z,4.20
2022-08-29T19:45:43.515Z,5.50
2022-08-29T19:48:15.082Z,5.40
2022-08-29T19:50:47.735Z,5.60
2022-08-29T19:53:24.694Z,3.90
2022-08-29T19:55:56.506Z,6.50
2022-08-29T19:58:31.925Z,5.20
2022-08-29T20:01:06.964Z,4.70
2022-08-29T20:03:39.062Z,5.70
2022-08-29T20:06:08.793Z,4.00
2022-08-29T20:08:42.778Z,4.30
2022-08-29T20:11:18.302Z,7.50
2022-08-29T20:13:50.656Z,3.80
2022-08-29T20:16:23.879Z,5.50
2022-08-29T20:18:53.295Z,4.30
2022-08-29T20:21:23.768Z,5.50
2022-08-29T20:23:58.032Z,4.00
2022-08-29T20:26:31.664Z,5.10
2022-08-29T20:29:01.267Z,5.00
2022-08-29T20:31:29.575Z,4.50
2022-08-29T20:33:57.885Z,6.30
2022-08-29T20:36:44.659Z,5.20
2022-08-29T20:39:16.577Z,6.10
2022-08-29T20:41:51.535Z,6.90
2022-08-29T20:44:20.593Z,3.30
2022-08-29T20:46:49.982Z,5.00
2022-08-29T20:49:23.255Z,5.90
2022-08-29T20:51:52.783Z,5.10
2022-08-29T20:54:23.814Z,4.70
2022-08-29T20:56:53.719Z,6.00
2022-08-29T20:59:26.300Z,4.80
2022-08-29T21:01:55.921Z,4.40
2022-08-29T21:04:43.068Z,4.50
2022-08-29T21:07:14.041Z,4.70
2022-08-29T21:09:44.729Z,4.60
2022-08-29T21:12:14.459Z,4.90
2022-08-29T21:14:43.195Z,4.80
2022-08-29T21:17:13.037Z,4.50
2022-08-29T21:19:41.926Z,3.70
2022-08-29T21:22:12.748Z,5.10
2022-08-29T21:24:41.354Z,4.60
2022-08-29T21:27:09.955Z,6.10
2022-08-29T21:29:38.057Z,8.00
2022-08-29T21:32:05.975Z,6.00
2022-08-29T21:34:33.921Z,5.40
2022-08-29T21:37:01.858Z,4.70
2022-08-29T21:39:30.841Z,6.50
2022-08-29T21:42:02.425Z,5.40
2022-08-29T21:44:31.814Z,6.40
2022-08-29T21:47:00.248Z,5.80
2022-08-29T21:49:30.510Z,6.10
2022-08-29T21:51:59.678Z,6.10
2022-08-29T21:54:27.963Z,4.80
2022-08-29T21:56:55.958Z,5.70
2022-08-29T21:59:25.286Z,4.40
2022-08-29T22:01:55.068Z,3.90
2022-08-29T22:04:28.964Z,5.40
2022-08-29T22:06:59.643Z,6.00
2022-08-29T22:09:29.540Z,5.00
2022-08-29T22:11:58.759Z,5.00
2022-08-29T22:14:46.770Z,5.30
2022-08-29T22:17:15.842Z,5.70
2022-08-29T22:19:43.866Z,5.50
2022-08-29T22:22:11.880Z,6.10
2022-08-29T22:24:39.768Z,4.70
2022-08-29T22:27:08.255Z,5.10
2022-08-29T22:29:37.569Z,5.70
2022-08-29T22:32:05.660Z,7.00
2022-08-29T22:34:34.019Z,7.10
2022-08-29T22:37:02.238Z,5.70
2022-08-29T22:39:30.164Z,5.40
2022-08-29T22:41:58.218Z,7.80
2022-08-29T22:47:15.165Z,5.50
2022-08-29T22:49:43.031Z,6.10
2022-08-29T22:52:11.695Z,5.60
2022-08-29T22:54:40.455Z,9.90
2022-08-29T22:57:14.282Z,6.90
2022-08-29T22:59:44.085Z,5.20
2022-08-29T23:02:13.367Z,6.80
2022-08-29T23:04:41.715Z,5.30
2022-08-29T23:07:11.838Z,6.10
2022-08-29T23:09:43.082Z,6.00
2022-08-29T23:12:13.122Z,7.60
2022-08-29T23:14:43.859Z,6.70
2022-08-29T23:17:12.364Z,8.00
2022-08-29T23:19:41.020Z,7.40
2022-08-29T23:22:11.244Z,6.50
2022-08-29T23:24:41.349Z,5.40
2022-08-29T23:27:21.887Z,5.90
2022-08-29T23:29:51.774Z,6.10
2022-08-29T23:32:19.778Z,6.70
2022-08-29T23:34:47.651Z,10.40
2022-08-29T23:37:15.542Z,7.90
2022-08-29T23:39:43.435Z,6.40
2022-08-29T23:42:11.334Z,6.20
2022-08-29T23:44:39.336Z,7.00
2022-08-29T23:47:08.609Z,5.90
2022-08-29T23:49:36.503Z,5.50
2022-08-29T23:52:05.514Z,6.40
2022-08-29T23:54:36.723Z,7.20
2022-08-29T23:57:05.038Z,5.80
2022-08-29T23:59:52.497Z,7.80
